sensor_id;sensor_type;location;lat;lon;timestamp;P1;durP1;ratioP1;P2;durP2;ratioP2
4424;SDS011;2225;53.568;13.266;2024-01-30T00:01:07;10.07;;;5.73;;
4424;SDS011;2225;53.568;13.266;2024-01-30T00:03:34;10.57;;;5.30;;
4424;SDS011;2225;53.568;13.266;2024-01-30T00:06:02;9.40;;;5.00;;
4424;SDS011;2225;53.568;13.266;2024-01-30T00:08:30;8.97;;;4.60;;
4424;SDS011;2225;53.568;13.266;2024-01-30T00:10:57;7.90;;;4.10;;
4424;SDS011;2225;53.568;13.266;2024-01-30T00:13:24;12.50;;;5.77;;
4424;SDS011;2225;53.568;13.266;2024-01-30T00:15:51;11.20;;;5.20;;
4424;SDS011;2225;53.568;13.266;2024-01-30T00:18:17;10.10;;;4.83;;
4424;SDS011;2225;53.568;13.266;2024-01-30T00:20:45;13.50;;;5.27;;
4424;SDS011;2225;53.568;13.266;2024-01-30T00:23:12;10.53;;;4.87;;
4424;SDS011;2225;53.568;13.266;2024-01-30T00:25:40;11.30;;;5.33;;
4424;SDS011;2225;53.568;13.266;2024-01-30T00:28:06;10.53;;;5.53;;
4424;SDS011;2225;53.568;13.266;2024-01-30T00:30:33;11.10;;;5.83;;
4424;SDS011;2225;53.568;13.266;2024-01-30T00:33:00;10.13;;;4.63;;
4424;SDS011;2225;53.568;13.266;2024-01-30T00:35:27;9.37;;;5.23;;
4424;SDS011;2225;53.568;13.266;2024-01-30T00:37:55;12.77;;;5.80;;
4424;SDS011;2225;53.568;13.266;2024-01-30T00:40:23;9.00;;;5.07;;
4424;SDS011;2225;53.568;13.266;2024-01-30T00:42:50;12.03;;;5.50;;
4424;SDS011;2225;53.568;13.266;2024-01-30T00:45:17;11.40;;;5.60;;
4424;SDS011;2225;53.568;13.266;2024-01-30T00:47:44;10.50;;;4.90;;
4424;SDS011;2225;53.568;13.266;2024-01-30T00:50:11;12.30;;;5.80;;
4424;SDS011;2225;53.568;13.266;2024-01-30T00:52:38;10.27;;;5.20;;
4424;SDS011;2225;53.568;13.266;2024-01-30T00:55:06;9.77;;;5.20;;
4424;SDS011;2225;53.568;13.266;2024-01-30T00:57:33;11.30;;;5.93;;
4424;SDS011;2225;53.568;13.266;2024-01-30T01:00:00;12.03;;;5.97;;
4424;SDS011;2225;53.568;13.266;2024-01-30T01:02:27;11.90;;;5.90;;
4424;SDS011;2225;53.568;13.266;2024-01-30T01:04:54;11.80;;;5.47;;
4424;SDS011;2225;53.568;13.266;2024-01-30T01:07:21;9.90;;;5.40;;
4424;SDS011;2225;53.568;13.266;2024-01-30T01:09:48;10.90;;;5.13;;
4424;SDS011;2225;53.568;13.266;2024-01-30T01:12:15;17.67;;;5.60;;
4424;SDS011;2225;53.568;13.266;2024-01-30T01:14:42;12.10;;;5.50;;
4424;SDS011;2225;53.568;13.266;2024-01-30T01:17:09;10.97;;;5.50;;
4424;SDS011;2225;53.568;13.266;2024-01-30T01:19:36;13.20;;;5.93;;
4424;SDS011;2225;53.568;13.266;2024-01-30T01:22:03;10.30;;;5.67;;
4424;SDS011;2225;53.568;13.266;2024-01-30T01:24:33;9.67;;;5.80;;
4424;SDS011;2225;53.568;13.266;2024-01-30T01:27:00;10.70;;;5.57;;
4424;SDS011;2225;53.568;13.266;2024-01-30T01:29:27;10.40;;;5.33;;
4424;SDS011;2225;53.568;13.266;2024-01-30T01:31:55;12.13;;;6.10;;
4424;SDS011;2225;53.568;13.266;2024-01-30T01:34:22;9.20;;;5.47;;
4424;SDS011;2225;53.568;13.266;2024-01-30T01:36:55;12.17;;;5.77;;
4424;SDS011;2225;53.568;13.266;2024-01-30T01:39:22;16.50;;;6.50;;
4424;SDS011;2225;53.568;13.266;2024-01-30T01:41:50;10.70;;;5.83;;
4424;SDS011;2225;53.568;13.266;2024-01-30T01:44:17;13.97;;;5.93;;
4424;SDS011;2225;53.568;13.266;2024-01-30T01:46:44;11.73;;;5.57;;
4424;SDS011;2225;53.568;13.266;2024-01-30T01:49:12;13.20;;;5.60;;
4424;SDS011;2225;53.568;13.266;2024-01-30T01:51:41;13.80;;;6.03;;
4424;SDS011;2225;53.568;13.266;2024-01-30T01:54:11;13.60;;;6.87;;
4424;SDS011;2225;53.568;13.266;2024-01-30T01:56:38;12.50;;;5.73;;
4424;SDS011;2225;53.568;13.266;2024-01-30T01:59:06;9.70;;;5.30;;
4424;SDS011;2225;53.568;13.266;2024-01-30T02:01:36;13.07;;;5.80;;
4424;SDS011;2225;53.568;13.266;2024-01-30T02:04:04;10.77;;;6.57;;
4424;SDS011;2225;53.568;13.266;2024-01-30T02:06:31;10.03;;;5.67;;
4424;SDS011;2225;53.568;13.266;2024-01-30T02:09:00;9.13;;;5.23;;
4424;SDS011;2225;53.568;13.266;2024-01-30T02:11:27;13.73;;;6.30;;
4424;SDS011;2225;53.568;13.266;2024-01-30T02:13:54;12.20;;;6.00;;
4424;SDS011;2225;53.568;13.266;2024-01-30T02:16:21;13.97;;;5.70;;
4424;SDS011;2225;53.568;13.266;2024-01-30T02:18:49;13.80;;;5.83;;
4424;SDS011;2225;53.568;13.266;2024-01-30T02:21:16;14.40;;;5.37;;
4424;SDS011;2225;53.568;13.266;2024-01-30T02:23:44;9.97;;;5.17;;
4424;SDS011;2225;53.568;13.266;2024-01-30T02:26:13;10.03;;;5.30;;
4424;SDS011;2225;53.568;13.266;2024-01-30T02:28:40;9.57;;;5.57;;
4424;SDS011;2225;53.568;13.266;2024-01-30T02:31:07;11.33;;;6.33;;
4424;SDS011;2225;53.568;13.266;2024-01-30T02:33:34;10.63;;;5.20;;
4424;SDS011;2225;53.568;13.266;2024-01-30T02:36:01;13.57;;;5.40;;
4424;SDS011;2225;53.568;13.266;2024-01-30T02:38:28;10.83;;;5.83;;
4424;SDS011;2225;53.568;13.266;2024-01-30T02:40:55;12.30;;;5.23;;
4424;SDS011;2225;53.568;13.266;2024-01-30T02:43:24;13.37;;;5.70;;
4424;SDS011;2225;53.568;13.266;2024-01-30T02:45:51;11.97;;;5.70;;
4424;SDS011;2225;53.568;13.266;2024-01-30T02:48:18;13.73;;;6.43;;
4424;SDS011;2225;53.568;13.266;2024-01-30T02:50:45;15.73;;;6.03;;
4424;SDS011;2225;53.568;13.266;2024-01-30T02:53:13;12.10;;;6.47;;
4424;SDS011;2225;53.568;13.266;2024-01-30T02:55:40;13.40;;;6.70;;
4424;SDS011;2225;53.568;13.266;2024-01-30T02:58:07;14.37;;;6.90;;
4424;SDS011;2225;53.568;13.266;2024-01-30T03:00:34;14.73;;;7.50;;
4424;SDS011;2225;53.568;13.266;2024-01-30T03:03:01;14.20;;;7.23;;
4424;SDS011;2225;53.568;13.266;2024-01-30T03:05:28;12.60;;;7.00;;
4424;SDS011;2225;53.568;13.266;2024-01-30T03:07:55;15.97;;;7.00;;
4424;SDS011;2225;53.568;13.266;2024-01-30T03:10:22;21.60;;;6.80;;
4424;SDS011;2225;53.568;13.266;2024-01-30T03:12:49;11.50;;;6.00;;
4424;SDS011;2225;53.568;13.266;2024-01-30T03:15:16;13.60;;;6.63;;
4424;SDS011;2225;53.568;13.266;2024-01-30T03:17:43;12.80;;;6.73;;
4424;SDS011;2225;53.568;13.266;2024-01-30T03:20:10;11.80;;;6.70;;
4424;SDS011;2225;53.568;13.266;2024-01-30T03:22:37;12.73;;;6.30;;
4424;SDS011;2225;53.568;13.266;2024-01-30T03:25:04;11.37;;;6.67;;
4424;SDS011;2225;53.568;13.266;2024-01-30T03:27:32;13.77;;;6.77;;
4424;SDS011;2225;53.568;13.266;2024-01-30T03:29:59;14.30;;;7.10;;
4424;SDS011;2225;53.568;13.266;2024-01-30T03:32:26;13.37;;;6.33;;
4424;SDS011;2225;53.568;13.266;2024-01-30T03:34:53;12.20;;;6.10;;
4424;SDS011;2225;53.568;13.266;2024-01-30T03:37:20;11.23;;;5.67;;
4424;SDS011;2225;53.568;13.266;2024-01-30T03:39:47;11.30;;;6.83;;
4424;SDS011;2225;53.568;13.266;2024-01-30T03:42:14;12.03;;;6.63;;
4424;SDS011;2225;53.568;13.266;2024-01-30T03:44:42;13.90;;;6.77;;
4424;SDS011;2225;53.568;13.266;2024-01-30T03:47:09;10.80;;;5.50;;
4424;SDS011;2225;53.568;13.266;2024-01-30T03:49:36;10.67;;;6.47;;
4424;SDS011;2225;53.568;13.266;2024-01-30T03:52:03;10.73;;;5.97;;
4424;SDS011;2225;53.568;13.266;2024-01-30T03:54:30;11.40;;;5.80;;
4424;SDS011;2225;53.568;13.266;2024-01-30T03:56:57;11.50;;;5.80;;
4424;SDS011;2225;53.568;13.266;2024-01-30T03:59:24;18.80;;;8.00;;
4424;SDS011;2225;53.568;13.266;2024-01-30T04:01:51;23.27;;;9.53;;
4424;SDS011;2225;53.568;13.266;2024-01-30T04:04:18;13.23;;;6.90;;
4424;SDS011;2225;53.568;13.266;2024-01-30T04:06:46;10.33;;;6.30;;
4424;SDS011;2225;53.568;13.266;2024-01-30T04:09:13;12.10;;;6.50;;
4424;SDS011;2225;53.568;13.266;2024-01-30T04:11:41;14.43;;;5.70;;
4424;SDS011;2225;53.568;13.266;2024-01-30T04:14:10;12.50;;;6.10;;
4424;SDS011;2225;53.568;13.266;2024-01-30T04:16:37;10.63;;;5.67;;
4424;SDS011;2225;53.568;13.266;2024-01-30T04:19:04;12.40;;;6.63;;
4424;SDS011;2225;53.568;13.266;2024-01-30T04:21:31;12.83;;;6.33;;
4424;SDS011;2225;53.568;13.266;2024-01-30T04:23:58;11.90;;;6.40;;
4424;SDS011;2225;53.568;13.266;2024-01-30T04:26:26;11.73;;;6.30;;
4424;SDS011;2225;53.568;13.266;2024-01-30T04:28:52;14.73;;;6.90;;
4424;SDS011;2225;53.568;13.266;2024-01-30T04:31:19;11.43;;;5.90;;
4424;SDS011;2225;53.568;13.266;2024-01-30T04:33:46;11.00;;;6.20;;
4424;SDS011;2225;53.568;13.266;2024-01-30T04:36:14;13.30;;;6.57;;
4424;SDS011;2225;53.568;13.266;2024-01-30T04:38:41;11.67;;;5.87;;
4424;SDS011;2225;53.568;13.266;2024-01-30T04:41:08;17.83;;;6.60;;
4424;SDS011;2225;53.568;13.266;2024-01-30T04:43:34;12.23;;;6.77;;
4424;SDS011;2225;53.568;13.266;2024-01-30T04:46:02;12.97;;;6.90;;
4424;SDS011;2225;53.568;13.266;2024-01-30T04:48:30;10.87;;;5.73;;
4424;SDS011;2225;53.568;13.266;2024-01-30T04:50:58;12.13;;;6.37;;
4424;SDS011;2225;53.568;13.266;2024-01-30T04:53:24;13.50;;;7.20;;
4424;SDS011;2225;53.568;13.266;2024-01-30T04:55:51;9.67;;;6.00;;
4424;SDS011;2225;53.568;13.266;2024-01-30T04:58:18;11.63;;;6.50;;
4424;SDS011;2225;53.568;13.266;2024-01-30T05:00:45;12.87;;;6.10;;
4424;SDS011;2225;53.568;13.266;2024-01-30T05:03:18;11.63;;;6.50;;
4424;SDS011;2225;53.568;13.266;2024-01-30T05:05:46;11.70;;;7.00;;
4424;SDS011;2225;53.568;13.266;2024-01-30T05:08:13;15.80;;;7.77;;
4424;SDS011;2225;53.568;13.266;2024-01-30T05:10:40;12.10;;;7.27;;
4424;SDS011;2225;53.568;13.266;2024-01-30T05:13:07;13.90;;;7.00;;
4424;SDS011;2225;53.568;13.266;2024-01-30T05:15:34;12.40;;;6.90;;
4424;SDS011;2225;53.568;13.266;2024-01-30T05:18:01;11.87;;;6.93;;
4424;SDS011;2225;53.568;13.266;2024-01-30T05:20:28;16.40;;;7.77;;
4424;SDS011;2225;53.568;13.266;2024-01-30T05:22:55;14.80;;;7.70;;
4424;SDS011;2225;53.568;13.266;2024-01-30T05:25:21;17.00;;;8.23;;
4424;SDS011;2225;53.568;13.266;2024-01-30T05:27:49;15.60;;;7.67;;
4424;SDS011;2225;53.568;13.266;2024-01-30T05:30:16;17.07;;;8.60;;
4424;SDS011;2225;53.568;13.266;2024-01-30T05:32:43;15.80;;;9.13;;
4424;SDS011;2225;53.568;13.266;2024-01-30T05:35:10;14.30;;;8.00;;
4424;SDS011;2225;53.568;13.266;2024-01-30T05:37:37;17.60;;;9.67;;
4424;SDS011;2225;53.568;13.266;2024-01-30T05:40:04;19.30;;;8.80;;
4424;SDS011;2225;53.568;13.266;2024-01-30T05:42:32;21.47;;;8.57;;
4424;SDS011;2225;53.568;13.266;2024-01-30T05:44:59;15.57;;;9.23;;
4424;SDS011;2225;53.568;13.266;2024-01-30T05:47:26;14.07;;;7.73;;
4424;SDS011;2225;53.568;13.266;2024-01-30T05:49:53;28.53;;;8.27;;
4424;SDS011;2225;53.568;13.266;2024-01-30T05:52:20;22.40;;;8.53;;
4424;SDS011;2225;53.568;13.266;2024-01-30T05:54:47;21.73;;;10.27;;
4424;SDS011;2225;53.568;13.266;2024-01-30T05:57:14;22.50;;;9.10;;
4424;SDS011;2225;53.568;13.266;2024-01-30T05:59:41;15.20;;;8.20;;
4424;SDS011;2225;53.568;13.266;2024-01-30T06:02:10;20.20;;;9.87;;
4424;SDS011;2225;53.568;13.266;2024-01-30T06:04:37;24.93;;;8.33;;
4424;SDS011;2225;53.568;13.266;2024-01-30T06:07:05;15.57;;;8.63;;
4424;SDS011;2225;53.568;13.266;2024-01-30T06:09:32;20.87;;;8.80;;
4424;SDS011;2225;53.568;13.266;2024-01-30T06:11:59;17.50;;;8.43;;
4424;SDS011;2225;53.568;13.266;2024-01-30T06:14:26;17.63;;;8.60;;
4424;SDS011;2225;53.568;13.266;2024-01-30T06:16:53;16.27;;;8.60;;
4424;SDS011;2225;53.568;13.266;2024-01-30T06:19:20;14.10;;;8.50;;
4424;SDS011;2225;53.568;13.266;2024-01-30T06:21:47;14.30;;;7.20;;
4424;SDS011;2225;53.568;13.266;2024-01-30T06:24:14;14.20;;;8.47;;
4424;SDS011;2225;53.568;13.266;2024-01-30T06:26:41;18.33;;;8.50;;
4424;SDS011;2225;53.568;13.266;2024-01-30T06:29:08;17.70;;;9.40;;
4424;SDS011;2225;53.568;13.266;2024-01-30T06:31:41;23.63;;;9.03;;
4424;SDS011;2225;53.568;13.266;2024-01-30T06:34:09;16.27;;;7.97;;
4424;SDS011;2225;53.568;13.266;2024-01-30T06:36:37;22.70;;;9.43;;
4424;SDS011;2225;53.568;13.266;2024-01-30T06:39:04;16.63;;;9.30;;
4424;SDS011;2225;53.568;13.266;2024-01-30T06:41:32;17.20;;;9.43;;
4424;SDS011;2225;53.568;13.266;2024-01-30T06:43:58;20.10;;;9.57;;
4424;SDS011;2225;53.568;13.266;2024-01-30T06:46:25;21.40;;;8.87;;
4424;SDS011;2225;53.568;13.266;2024-01-30T06:48:54;18.67;;;9.07;;
4424;SDS011;2225;53.568;13.266;2024-01-30T06:51:21;16.50;;;10.20;;
4424;SDS011;2225;53.568;13.266;2024-01-30T06:53:48;18.23;;;10.43;;
4424;SDS011;2225;53.568;13.266;2024-01-30T06:56:15;22.87;;;11.20;;
4424;SDS011;2225;53.568;13.266;2024-01-30T06:58:47;19.30;;;11.10;;
4424;SDS011;2225;53.568;13.266;2024-01-30T07:01:15;19.93;;;11.33;;
4424;SDS011;2225;53.568;13.266;2024-01-30T07:03:43;18.40;;;10.67;;
4424;SDS011;2225;53.568;13.266;2024-01-30T07:06:10;22.50;;;10.60;;
4424;SDS011;2225;53.568;13.266;2024-01-30T07:08:37;20.67;;;11.10;;
4424;SDS011;2225;53.568;13.266;2024-01-30T07:11:07;18.67;;;10.50;;
4424;SDS011;2225;53.568;13.266;2024-01-30T07:13:34;21.03;;;10.50;;
4424;SDS011;2225;53.568;13.266;2024-01-30T07:16:01;19.70;;;11.13;;
4424;SDS011;2225;53.568;13.266;2024-01-30T07:18:28;19.87;;;11.77;;
4424;SDS011;2225;53.568;13.266;2024-01-30T07:20:55;28.70;;;11.60;;
4424;SDS011;2225;53.568;13.266;2024-01-30T07:23:22;24.03;;;11.10;;
4424;SDS011;2225;53.568;13.266;2024-01-30T07:25:49;22.27;;;10.90;;
4424;SDS011;2225;53.568;13.266;2024-01-30T07:28:17;20.00;;;10.80;;
4424;SDS011;2225;53.568;13.266;2024-01-30T07:30:44;22.57;;;11.73;;
4424;SDS011;2225;53.568;13.266;2024-01-30T07:33:11;29.37;;;14.50;;
4424;SDS011;2225;53.568;13.266;2024-01-30T07:35:38;21.17;;;12.30;;
4424;SDS011;2225;53.568;13.266;2024-01-30T07:38:05;27.13;;;11.90;;
4424;SDS011;2225;53.568;13.266;2024-01-30T07:40:32;23.20;;;11.03;;
4424;SDS011;2225;53.568;13.266;2024-01-30T07:43:00;19.43;;;11.60;;
4424;SDS011;2225;53.568;13.266;2024-01-30T07:45:27;23.10;;;10.00;;
4424;SDS011;2225;53.568;13.266;2024-01-30T07:47:58;16.33;;;9.37;;
4424;SDS011;2225;53.568;13.266;2024-01-30T07:50:26;25.43;;;10.97;;
4424;SDS011;2225;53.568;13.266;2024-01-30T07:52:55;24.50;;;10.67;;
4424;SDS011;2225;53.568;13.266;2024-01-30T07:55:23;24.83;;;9.87;;
4424;SDS011;2225;53.568;13.266;2024-01-30T07:57:54;19.77;;;11.43;;
4424;SDS011;2225;53.568;13.266;2024-01-30T08:00:21;25.63;;;10.50;;
4424;SDS011;2225;53.568;13.266;2024-01-30T08:02:48;22.70;;;12.03;;
4424;SDS011;2225;53.568;13.266;2024-01-30T08:05:15;19.00;;;11.37;;
4424;SDS011;2225;53.568;13.266;2024-01-30T08:07:43;17.60;;;11.03;;
4424;SDS011;2225;53.568;13.266;2024-01-30T08:10:11;21.70;;;11.00;;
4424;SDS011;2225;53.568;13.266;2024-01-30T08:12:39;21.20;;;10.50;;
4424;SDS011;2225;53.568;13.266;2024-01-30T08:15:06;18.90;;;10.23;;
4424;SDS011;2225;53.568;13.266;2024-01-30T08:17:34;21.73;;;10.90;;
4424;SDS011;2225;53.568;13.266;2024-01-30T08:20:01;18.50;;;9.90;;
4424;SDS011;2225;53.568;13.266;2024-01-30T08:22:30;18.90;;;10.80;;
4424;SDS011;2225;53.568;13.266;2024-01-30T08:24:57;16.80;;;10.00;;
4424;SDS011;2225;53.568;13.266;2024-01-30T08:27:25;17.73;;;9.90;;
4424;SDS011;2225;53.568;13.266;2024-01-30T08:29:53;21.70;;;11.30;;
4424;SDS011;2225;53.568;13.266;2024-01-30T08:32:19;22.97;;;11.63;;
4424;SDS011;2225;53.568;13.266;2024-01-30T08:34:46;22.27;;;10.90;;
4424;SDS011;2225;53.568;13.266;2024-01-30T08:37:14;21.30;;;11.13;;
4424;SDS011;2225;53.568;13.266;2024-01-30T08:39:43;22.27;;;10.30;;
4424;SDS011;2225;53.568;13.266;2024-01-30T08:42:10;19.60;;;11.03;;
4424;SDS011;2225;53.568;13.266;2024-01-30T08:44:37;19.10;;;10.67;;
4424;SDS011;2225;53.568;13.266;2024-01-30T08:47:05;21.67;;;12.17;;
4424;SDS011;2225;53.568;13.266;2024-01-30T08:49:32;18.63;;;10.87;;
4424;SDS011;2225;53.568;13.266;2024-01-30T08:51:59;19.87;;;10.30;;
4424;SDS011;2225;53.568;13.266;2024-01-30T08:54:26;16.50;;;10.13;;
4424;SDS011;2225;53.568;13.266;2024-01-30T08:56:53;23.17;;;13.10;;
4424;SDS011;2225;53.568;13.266;2024-01-30T08:59:22;28.30;;;15.53;;
4424;SDS011;2225;53.568;13.266;2024-01-30T09:01:49;25.07;;;13.10;;
4424;SDS011;2225;53.568;13.266;2024-01-30T09:04:32;24.43;;;11.47;;
4424;SDS011;2225;53.568;13.266;2024-01-30T09:06:59;18.37;;;10.17;;
4424;SDS011;2225;53.568;13.266;2024-01-30T09:09:26;17.63;;;9.47;;
4424;SDS011;2225;53.568;13.266;2024-01-30T09:11:53;16.50;;;10.03;;
4424;SDS011;2225;53.568;13.266;2024-01-30T09:14:20;17.17;;;9.67;;
4424;SDS011;2225;53.568;13.266;2024-01-30T09:16:47;17.27;;;9.67;;
4424;SDS011;2225;53.568;13.266;2024-01-30T09:19:15;19.30;;;9.57;;
4424;SDS011;2225;53.568;13.266;2024-01-30T09:21:42;19.90;;;9.90;;
4424;SDS011;2225;53.568;13.266;2024-01-30T09:24:09;21.30;;;10.30;;
4424;SDS011;2225;53.568;13.266;2024-01-30T09:26:36;20.67;;;10.40;;
4424;SDS011;2225;53.568;13.266;2024-01-30T09:29:03;18.80;;;10.47;;
4424;SDS011;2225;53.568;13.266;2024-01-30T09:31:30;19.00;;;9.67;;
4424;SDS011;2225;53.568;13.266;2024-01-30T09:33:57;21.00;;;9.80;;
4424;SDS011;2225;53.568;13.266;2024-01-30T09:36:24;22.83;;;10.20;;
4424;SDS011;2225;53.568;13.266;2024-01-30T09:38:51;15.47;;;9.30;;
4424;SDS011;2225;53.568;13.266;2024-01-30T09:41:18;22.77;;;10.40;;
4424;SDS011;2225;53.568;13.266;2024-01-30T09:43:47;15.77;;;9.00;;
4424;SDS011;2225;53.568;13.266;2024-01-30T09:46:16;19.67;;;10.20;;
4424;SDS011;2225;53.568;13.266;2024-01-30T09:48:47;18.00;;;9.60;;
4424;SDS011;2225;53.568;13.266;2024-01-30T09:51:15;17.10;;;9.47;;
4424;SDS011;2225;53.568;13.266;2024-01-30T09:53:43;20.23;;;10.47;;
4424;SDS011;2225;53.568;13.266;2024-01-30T09:56:12;16.77;;;9.40;;
4424;SDS011;2225;53.568;13.266;2024-01-30T09:58:39;18.70;;;9.63;;
4424;SDS011;2225;53.568;13.266;2024-01-30T10:01:06;20.90;;;10.70;;
4424;SDS011;2225;53.568;13.266;2024-01-30T10:03:33;28.17;;;12.13;;
4424;SDS011;2225;53.568;13.266;2024-01-30T10:06:00;18.70;;;9.90;;
4424;SDS011;2225;53.568;13.266;2024-01-30T10:08:28;19.47;;;10.07;;
4424;SDS011;2225;53.568;13.266;2024-01-30T10:10:56;19.87;;;9.70;;
4424;SDS011;2225;53.568;13.266;2024-01-30T10:13:25;21.73;;;10.80;;
4424;SDS011;2225;53.568;13.266;2024-01-30T10:15:52;20.13;;;10.57;;
4424;SDS011;2225;53.568;13.266;2024-01-30T10:18:24;21.73;;;11.03;;
4424;SDS011;2225;53.568;13.266;2024-01-30T10:20:51;24.90;;;11.07;;
4424;SDS011;2225;53.568;13.266;2024-01-30T10:23:18;20.63;;;10.40;;
4424;SDS011;2225;53.568;13.266;2024-01-30T10:25:46;17.60;;;9.23;;
4424;SDS011;2225;53.568;13.266;2024-01-30T10:28:13;21.63;;;10.47;;
4424;SDS011;2225;53.568;13.266;2024-01-30T10:30:40;27.30;;;12.97;;
4424;SDS011;2225;53.568;13.266;2024-01-30T10:33:07;30.93;;;15.40;;
4424;SDS011;2225;53.568;13.266;2024-01-30T10:35:35;67.13;;;28.20;;
4424;SDS011;2225;53.568;13.266;2024-01-30T10:38:02;54.37;;;26.37;;
4424;SDS011;2225;53.568;13.266;2024-01-30T10:40:32;77.97;;;32.70;;
4424;SDS011;2225;53.568;13.266;2024-01-30T10:43:01;112.63;;;47.10;;
4424;SDS011;2225;53.568;13.266;2024-01-30T10:45:30;64.43;;;30.13;;
4424;SDS011;2225;53.568;13.266;2024-01-30T10:47:59;45.67;;;23.73;;
4424;SDS011;2225;53.568;13.266;2024-01-30T10:50:28;36.13;;;19.33;;
4424;SDS011;2225;53.568;13.266;2024-01-30T10:52:56;28.77;;;14.60;;
4424;SDS011;2225;53.568;13.266;2024-01-30T10:55:25;32.37;;;19.07;;
4424;SDS011;2225;53.568;13.266;2024-01-30T10:57:55;24.03;;;12.70;;
4424;SDS011;2225;53.568;13.266;2024-01-30T11:00:22;27.20;;;12.43;;
4424;SDS011;2225;53.568;13.266;2024-01-30T11:02:50;22.53;;;10.87;;
4424;SDS011;2225;53.568;13.266;2024-01-30T11:05:24;18.60;;;10.20;;
4424;SDS011;2225;53.568;13.266;2024-01-30T11:07:59;22.97;;;11.77;;
4424;SDS011;2225;53.568;13.266;2024-01-30T11:10:46;24.10;;;11.60;;
4424;SDS011;2225;53.568;13.266;2024-01-30T11:13:14;19.13;;;10.53;;
4424;SDS011;2225;53.568;13.266;2024-01-30T11:15:41;20.03;;;10.10;;
4424;SDS011;2225;53.568;13.266;2024-01-30T11:18:08;22.00;;;11.37;;
4424;SDS011;2225;53.568;13.266;2024-01-30T11:20:35;25.53;;;10.30;;
4424;SDS011;2225;53.568;13.266;2024-01-30T11:23:02;28.90;;;12.30;;
4424;SDS011;2225;53.568;13.266;2024-01-30T11:25:32;20.83;;;11.03;;
4424;SDS011;2225;53.568;13.266;2024-01-30T11:28:00;18.53;;;10.30;;
4424;SDS011;2225;53.568;13.266;2024-01-30T11:30:28;17.70;;;9.63;;
4424;SDS011;2225;53.568;13.266;2024-01-30T11:32:58;22.57;;;10.80;;
4424;SDS011;2225;53.568;13.266;2024-01-30T11:35:32;19.97;;;10.53;;
4424;SDS011;2225;53.568;13.266;2024-01-30T11:38:11;21.17;;;11.10;;
4424;SDS011;2225;53.568;13.266;2024-01-30T11:40:40;18.93;;;9.60;;
4424;SDS011;2225;53.568;13.266;2024-01-30T11:43:08;20.70;;;9.80;;
4424;SDS011;2225;53.568;13.266;2024-01-30T11:45:36;17.03;;;9.67;;
4424;SDS011;2225;53.568;13.266;2024-01-30T11:48:04;19.23;;;10.27;;
4424;SDS011;2225;53.568;13.266;2024-01-30T11:50:32;21.70;;;10.63;;
4424;SDS011;2225;53.568;13.266;2024-01-30T11:53:00;20.77;;;10.13;;
4424;SDS011;2225;53.568;13.266;2024-01-30T11:55:31;16.03;;;9.87;;
4424;SDS011;2225;53.568;13.266;2024-01-30T11:58:01;17.47;;;9.73;;
4424;SDS011;2225;53.568;13.266;2024-01-30T12:00:29;19.80;;;10.60;;
4424;SDS011;2225;53.568;13.266;2024-01-30T12:03:01;20.57;;;9.77;;
4424;SDS011;2225;53.568;13.266;2024-01-30T12:05:29;22.67;;;9.90;;
4424;SDS011;2225;53.568;13.266;2024-01-30T12:07:57;22.53;;;9.97;;
4424;SDS011;2225;53.568;13.266;2024-01-30T12:10:28;20.77;;;9.53;;
4424;SDS011;2225;53.568;13.266;2024-01-30T12:12:56;16.33;;;10.40;;
4424;SDS011;2225;53.568;13.266;2024-01-30T12:15:24;25.43;;;10.90;;
4424;SDS011;2225;53.568;13.266;2024-01-30T12:17:51;16.30;;;9.67;;
4424;SDS011;2225;53.568;13.266;2024-01-30T12:20:18;18.87;;;10.60;;
4424;SDS011;2225;53.568;13.266;2024-01-30T12:22:48;17.57;;;10.10;;
4424;SDS011;2225;53.568;13.266;2024-01-30T12:25:17;24.03;;;10.80;;
4424;SDS011;2225;53.568;13.266;2024-01-30T12:27:48;20.13;;;10.83;;
4424;SDS011;2225;53.568;13.266;2024-01-30T12:30:17;21.43;;;9.87;;
4424;SDS011;2225;53.568;13.266;2024-01-30T12:32:48;24.27;;;11.47;;
4424;SDS011;2225;53.568;13.266;2024-01-30T12:35:18;24.87;;;11.43;;
4424;SDS011;2225;53.568;13.266;2024-01-30T12:37:47;27.97;;;10.90;;
4424;SDS011;2225;53.568;13.266;2024-01-30T12:40:14;21.47;;;11.40;;
4424;SDS011;2225;53.568;13.266;2024-01-30T12:42:43;18.77;;;10.17;;
4424;SDS011;2225;53.568;13.266;2024-01-30T12:45:15;19.70;;;10.43;;
4424;SDS011;2225;53.568;13.266;2024-01-30T12:47:46;23.00;;;11.83;;
4424;SDS011;2225;53.568;13.266;2024-01-30T12:50:13;18.73;;;10.77;;
4424;SDS011;2225;53.568;13.266;2024-01-30T12:52:42;20.53;;;11.23;;
4424;SDS011;2225;53.568;13.266;2024-01-30T12:55:13;16.23;;;9.23;;
4424;SDS011;2225;53.568;13.266;2024-01-30T12:57:41;21.13;;;10.30;;
4424;SDS011;2225;53.568;13.266;2024-01-30T13:00:08;16.73;;;9.87;;
4424;SDS011;2225;53.568;13.266;2024-01-30T13:02:35;19.10;;;9.40;;
4424;SDS011;2225;53.568;13.266;2024-01-30T13:05:03;17.67;;;9.70;;
4424;SDS011;2225;53.568;13.266;2024-01-30T13:07:31;17.97;;;9.87;;
4424;SDS011;2225;53.568;13.266;2024-01-30T13:09:58;16.03;;;9.13;;
4424;SDS011;2225;53.568;13.266;2024-01-30T13:12:30;16.33;;;9.33;;
4424;SDS011;2225;53.568;13.266;2024-01-30T13:14:59;24.87;;;9.23;;
4424;SDS011;2225;53.568;13.266;2024-01-30T13:17:30;19.33;;;9.93;;
4424;SDS011;2225;53.568;13.266;2024-01-30T13:19:58;14.97;;;9.60;;
4424;SDS011;2225;53.568;13.266;2024-01-30T13:22:36;22.30;;;9.43;;
4424;SDS011;2225;53.568;13.266;2024-01-30T13:25:05;15.30;;;9.07;;
4424;SDS011;2225;53.568;13.266;2024-01-30T13:27:33;19.07;;;9.30;;
4424;SDS011;2225;53.568;13.266;2024-01-30T13:30:00;16.57;;;9.40;;
4424;SDS011;2225;53.568;13.266;2024-01-30T13:32:27;22.87;;;10.00;;
4424;SDS011;2225;53.568;13.266;2024-01-30T13:34:54;22.57;;;9.43;;
4424;SDS011;2225;53.568;13.266;2024-01-30T13:37:22;18.87;;;9.87;;
4424;SDS011;2225;53.568;13.266;2024-01-30T13:39:49;17.50;;;8.90;;
4424;SDS011;2225;53.568;13.266;2024-01-30T13:42:16;19.53;;;9.60;;
4424;SDS011;2225;53.568;13.266;2024-01-30T13:44:43;21.47;;;10.43;;
4424;SDS011;2225;53.568;13.266;2024-01-30T13:47:10;27.23;;;8.77;;
4424;SDS011;2225;53.568;13.266;2024-01-30T13:49:37;16.17;;;8.20;;
4424;SDS011;2225;53.568;13.266;2024-01-30T13:52:05;20.50;;;9.40;;
4424;SDS011;2225;53.568;13.266;2024-01-30T13:54:32;17.57;;;9.10;;
4424;SDS011;2225;53.568;13.266;2024-01-30T13:56:59;17.40;;;8.73;;
4424;SDS011;2225;53.568;13.266;2024-01-30T13:59:26;22.20;;;9.80;;
4424;SDS011;2225;53.568;13.266;2024-01-30T14:01:53;23.00;;;8.37;;
4424;SDS011;2225;53.568;13.266;2024-01-30T14:04:20;18.30;;;9.00;;
4424;SDS011;2225;53.568;13.266;2024-01-30T14:06:48;18.60;;;8.73;;
4424;SDS011;2225;53.568;13.266;2024-01-30T14:09:26;23.23;;;9.10;;
4424;SDS011;2225;53.568;13.266;2024-01-30T14:11:53;21.93;;;9.90;;
4424;SDS011;2225;53.568;13.266;2024-01-30T14:14:19;18.97;;;9.73;;
4424;SDS011;2225;53.568;13.266;2024-01-30T14:16:46;16.63;;;8.93;;
4424;SDS011;2225;53.568;13.266;2024-01-30T14:19:13;15.40;;;8.43;;
4424;SDS011;2225;53.568;13.266;2024-01-30T14:21:40;18.33;;;9.33;;
4424;SDS011;2225;53.568;13.266;2024-01-30T14:24:09;16.53;;;9.67;;
4424;SDS011;2225;53.568;13.266;2024-01-30T14:26:36;18.40;;;9.70;;
4424;SDS011;2225;53.568;13.266;2024-01-30T14:29:04;16.70;;;9.03;;
4424;SDS011;2225;53.568;13.266;2024-01-30T14:31:31;16.83;;;8.87;;
4424;SDS011;2225;53.568;13.266;2024-01-30T14:33:58;15.00;;;8.47;;
4424;SDS011;2225;53.568;13.266;2024-01-30T14:36:26;14.80;;;8.60;;
4424;SDS011;2225;53.568;13.266;2024-01-30T14:38:54;20.40;;;10.00;;
4424;SDS011;2225;53.568;13.266;2024-01-30T14:41:21;18.33;;;9.00;;
4424;SDS011;2225;53.568;13.266;2024-01-30T14:43:49;20.60;;;10.40;;
4424;SDS011;2225;53.568;13.266;2024-01-30T14:46:16;18.33;;;10.10;;